sensor_id;sensor_type;location;lat;lon;timestamp;temperature;humidity
33903;DHT22;20194;50.950;5.346;2022-09-20T00:00:42;15.10;1.00
33903;DHT22;20194;50.950;5.346;2022-09-20T00:03:09;15.00;1.80
33903;DHT22;20194;50.950;5.346;2022-09-20T00:05:37;15.00;1.00
33903;DHT22;20194;50.950;5.346;2022-09-20T00:08:04;14.90;2.10
33903;DHT22;20194;50.950;5.346;2022-09-20T00:10:33;14.90;2.50
33903;DHT22;20194;50.950;5.346;2022-09-20T00:13:01;15.10;1.00
33903;DHT22;20194;50.950;5.346;2022-09-20T00:15:26;15.00;1.00
33903;DHT22;20194;50.950;5.346;2022-09-20T00:17:52;15.10;1.00
33903;DHT22;20194;50.950;5.346;2022-09-20T00:20:18;15.10;1.00
33903;DHT22;20194;50.950;5.346;2022-09-20T00:22:43;15.10;1.00
33903;DHT22;20194;50.950;5.346;2022-09-20T00:25:09;14.90;1.00
33903;DHT22;20194;50.950;5.346;2022-09-20T00:27:35;15.00;1.00
33903;DHT22;20194;50.950;5.346;2022-09-20T00:30:01;15.10;1.00
33903;DHT22;20194;50.950;5.346;2022-09-20T00:32:27;15.20;1.00
33903;DHT22;20194;50.950;5.346;2022-09-20T00:34:52;15.20;1.00
33903;DHT22;20194;50.950;5.346;2022-09-20T00:37:35;15.10;1.00
33903;DHT22;20194;50.950;5.346;2022-09-20T00:40:03;15.10;1.00
33903;DHT22;20194;50.950;5.346;2022-09-20T00:42:30;15.10;1.00
33903;DHT22;20194;50.950;5.346;2022-09-20T00:45:00;15.20;1.00
33903;DHT22;20194;50.950;5.346;2022-09-20T00:52:35;15.00;1.00
33903;DHT22;20194;50.950;5.346;2022-09-20T00:55:04;15.00;1.00
33903;DHT22;20194;50.950;5.346;2022-09-20T00:57:32;14.90;1.60
33903;DHT22;20194;50.950;5.346;2022-09-20T01:00:03;14.90;2.60
33903;DHT22;20194;50.950;5.346;2022-09-20T01:02:30;15.00;1.00
33903;DHT22;20194;50.950;5.346;2022-09-20T01:04:57;15.00;1.00
33903;DHT22;20194;50.950;5.346;2022-09-20T01:07:24;15.00;1.00
33903;DHT22;20194;50.950;5.346;2022-09-20T01:09:51;15.00;1.00
33903;DHT22;20194;50.950;5.346;2022-09-20T01:12:22;14.90;1.00
33903;DHT22;20194;50.950;5.346;2022-09-20T01:14:50;14.90;1.00
33903;DHT22;20194;50.950;5.346;2022-09-20T01:17:18;14.90;1.00
33903;DHT22;20194;50.950;5.346;2022-09-20T01:20:08;14.90;1.00
33903;DHT22;20194;50.950;5.346;2022-09-20T01:28:16;14.90;1.00
33903;DHT22;20194;50.950;5.346;2022-09-20T01:31:03;14.90;1.00
33903;DHT22;20194;50.950;5.346;2022-09-20T01:36:00;14.80;1.00
33903;DHT22;20194;50.950;5.346;2022-09-20T01:41:08;14.70;4.50
33903;DHT22;20194;50.950;5.346;2022-09-20T01:48:59;14.70;5.30
33903;DHT22;20194;50.950;5.346;2022-09-20T01:52:08;14.70;7.30
33903;DHT22;20194;50.950;5.346;2022-09-20T01:57:24;14.80;6.80
33903;DHT22;20194;50.950;5.346;2022-09-20T02:03:09;14.70;7.10
33903;DHT22;20194;50.950;5.346;2022-09-20T02:11:15;14.40;12.60
33903;DHT22;20194;50.950;5.346;2022-09-20T02:14:21;14.10;18.70
33903;DHT22;20194;50.950;5.346;2022-09-20T02:16:56;13.90;25.30
33903;DHT22;20194;50.950;5.346;2022-09-20T02:19:33;13.90;27.00
33903;DHT22;20194;50.950;5.346;2022-09-20T02:24:49;13.60;30.20
33903;DHT22;20194;50.950;5.346;2022-09-20T02:33:33;13.50;34.20
33903;DHT22;20194;50.950;5.346;2022-09-20T02:39:02;13.70;29.90
33903;DHT22;20194;50.950;5.346;2022-09-20T02:41:53;13.70;29.20
33903;DHT22;20194;50.950;5.346;2022-09-20T02:44:27;13.70;27.40
33903;DHT22;20194;50.950;5.346;2022-09-20T02:47:21;13.30;34.10
33903;DHT22;20194;50.950;5.346;2022-09-20T02:53:09;13.40;32.00
33903;DHT22;20194;50.950;5.346;2022-09-20T02:56:28;13.40;35.00
33903;DHT22;20194;50.950;5.346;2022-09-20T03:01:16;13.50;32.40
33903;DHT22;20194;50.950;5.346;2022-09-20T03:04:14;13.70;29.30
33903;DHT22;20194;50.950;5.346;2022-09-20T03:06:46;13.80;28.90
33903;DHT22;20194;50.950;5.346;2022-09-20T03:12:18;13.90;26.90
33903;DHT22;20194;50.950;5.346;2022-09-20T03:20:57;14.00;22.20
33903;DHT22;20194;50.950;5.346;2022-09-20T03:26:36;13.80;25.80
33903;DHT22;20194;50.950;5.346;2022-09-20T03:29:20;13.70;29.60
33903;DHT22;20194;50.950;5.346;2022-09-20T03:43:51;13.50;31.20
33903;DHT22;20194;50.950;5.346;2022-09-20T03:46:28;13.50;34.80
33903;DHT22;20194;50.950;5.346;2022-09-20T03:51:57;13.70;29.80
33903;DHT22;20194;50.950;5.346;2022-09-20T04:00:38;14.10;19.60
33903;DHT22;20194;50.950;5.346;2022-09-20T04:08:48;14.30;17.50
33903;DHT22;20194;50.950;5.346;2022-09-20T04:11:30;14.30;15.90
33903;DHT22;20194;50.950;5.346;2022-09-20T04:14:10;14.40;15.10
33903;DHT22;20194;50.950;5.346;2022-09-20T04:16:54;14.40;14.10
33903;DHT22;20194;50.950;5.346;2022-09-20T04:19:47;14.50;12.80
33903;DHT22;20194;50.950;5.346;2022-09-20T04:22:18;14.40;12.80
33903;DHT22;20194;50.950;5.346;2022-09-20T04:27:30;14.20;17.70
33903;DHT22;20194;50.950;5.346;2022-09-20T04:30:22;14.10;20.70
33903;DHT22;20194;50.950;5.346;2022-09-20T04:33:27;14.20;17.60
33903;DHT22;20194;50.950;5.346;2022-09-20T04:36:08;14.10;16.60
33903;DHT22;20194;50.950;5.346;2022-09-20T04:56:04;14.10;19.60
33903;DHT22;20194;50.950;5.346;2022-09-20T05:15:22;14.00;22.10
33903;DHT22;20194;50.950;5.346;2022-09-20T05:20:56;14.20;20.00
33903;DHT22;20194;50.950;5.346;2022-09-20T05:26:02;14.20;16.20
33903;DHT22;20194;50.950;5.346;2022-09-20T05:31:27;13.90;24.20
33903;DHT22;20194;50.950;5.346;2022-09-20T05:42:54;14.10;19.20
33903;DHT22;20194;50.950;5.346;2022-09-20T05:59:24;13.70;27.40
33903;DHT22;20194;50.950;5.346;2022-09-20T06:11:18;14.00;24.40
33903;DHT22;20194;50.950;5.346;2022-09-20T06:14:03;14.20;21.40
33903;DHT22;20194;50.950;5.346;2022-09-20T06:22:24;13.90;20.80
33903;DHT22;20194;50.950;5.346;2022-09-20T06:30:33;14.20;17.70
33903;DHT22;20194;50.950;5.346;2022-09-20T06:33:13;14.10;16.60
33903;DHT22;20194;50.950;5.346;2022-09-20T06:41:41;13.90;26.30
33903;DHT22;20194;50.950;5.346;2022-09-20T06:44:07;13.70;29.20
33903;DHT22;20194;50.950;5.346;2022-09-20T06:46:34;13.80;32.00
33903;DHT22;20194;50.950;5.346;2022-09-20T06:49:01;13.80;26.30
33903;DHT22;20194;50.950;5.346;2022-09-20T06:51:34;13.50;31.90
33903;DHT22;20194;50.950;5.346;2022-09-20T06:54:00;13.30;35.40
33903;DHT22;20194;50.950;5.346;2022-09-20T06:56:28;13.20;36.70
33903;DHT22;20194;50.950;5.346;2022-09-20T06:58:54;13.20;36.60
33903;DHT22;20194;50.950;5.346;2022-09-20T07:01:20;13.30;35.90
33903;DHT22;20194;50.950;5.346;2022-09-20T07:03:46;13.50;33.90
33903;DHT22;20194;50.950;5.346;2022-09-20T07:06:12;13.70;31.30
33903;DHT22;20194;50.950;5.346;2022-09-20T07:08:45;13.80;29.00
33903;DHT22;20194;50.950;5.346;2022-09-20T07:11:13;13.80;25.20
33903;DHT22;20194;50.950;5.346;2022-09-20T07:13:41;13.90;26.00
33903;DHT22;20194;50.950;5.346;2022-09-20T07:16:09;14.10;24.10
33903;DHT22;20194;50.950;5.346;2022-09-20T07:18:36;14.20;21.70
33903;DHT22;20194;50.950;5.346;2022-09-20T07:21:01;14.30;21.30
33903;DHT22;20194;50.950;5.346;2022-09-20T07:23:28;14.50;18.10
33903;DHT22;20194;50.950;5.346;2022-09-20T07:25:57;14.40;13.70
33903;DHT22;20194;50.950;5.346;2022-09-20T07:28:28;14.20;17.10
33903;DHT22;20194;50.950;5.346;2022-09-20T07:30:54;14.30;19.30
33903;DHT22;20194;50.950;5.346;2022-09-20T07:33:20;14.40;17.20
33903;DHT22;20194;50.950;5.346;2022-09-20T07:35:51;14.40;17.40
33903;DHT22;20194;50.950;5.346;2022-09-20T07:38:21;14.40;16.50
33903;DHT22;20194;50.950;5.346;2022-09-20T07:41:00;14.10;20.50
33903;DHT22;20194;50.950;5.346;2022-09-20T07:43:27;14.00;26.60
33903;DHT22;20194;50.950;5.346;2022-09-20T07:45:54;14.10;27.70
33903;DHT22;20194;50.950;5.346;2022-09-20T07:48:31;14.10;30.00
33903;DHT22;20194;50.950;5.346;2022-09-20T07:51:08;13.70;35.40
33903;DHT22;20194;50.950;5.346;2022-09-20T07:53:34;13.80;38.10
33903;DHT22;20194;50.950;5.346;2022-09-20T07:56:05;13.80;38.80
33903;DHT22;20194;50.950;5.346;2022-09-20T07:58:33;13.90;39.90
33903;DHT22;20194;50.950;5.346;2022-09-20T08:01:02;13.80;37.40
33903;DHT22;20194;50.950;5.346;2022-09-20T08:03:29;13.70;36.10
33903;DHT22;20194;50.950;5.346;2022-09-20T08:06:06;13.70;37.00
33903;DHT22;20194;50.950;5.346;2022-09-20T08:08:36;13.70;38.70
33903;DHT22;20194;50.950;5.346;2022-09-20T08:11:05;13.70;39.70
33903;DHT22;20194;50.950;5.346;2022-09-20T08:13:35;13.80;38.60
33903;DHT22;20194;50.950;5.346;2022-09-20T08:16:03;13.90;39.20
33903;DHT22;20194;50.950;5.346;2022-09-20T08:18:29;13.90;39.50
33903;DHT22;20194;50.950;5.346;2022-09-20T08:20:55;13.90;38.40
33903;DHT22;20194;50.950;5.346;2022-09-20T08:23:21;13.90;36.80
33903;DHT22;20194;50.950;5.346;2022-09-20T08:25:47;13.90;37.50
33903;DHT22;20194;50.950;5.346;2022-09-20T08:28:14;13.90;39.70
33903;DHT22;20194;50.950;5.346;2022-09-20T08:30:40;14.10;35.90
33903;DHT22;20194;50.950;5.346;2022-09-20T08:33:06;14.20;35.50
33903;DHT22;20194;50.950;5.346;2022-09-20T08:35:34;14.20;35.70
33903;DHT22;20194;50.950;5.346;2022-09-20T08:38:00;13.90;35.50
33903;DHT22;20194;50.950;5.346;2022-09-20T08:40:28;13.90;33.60
33903;DHT22;20194;50.950;5.346;2022-09-20T08:42:55;13.80;38.60
33903;DHT22;20194;50.950;5.346;2022-09-20T08:45:24;14.00;38.20
33903;DHT22;20194;50.950;5.346;2022-09-20T08:47:57;14.10;35.70
33903;DHT22;20194;50.950;5.346;2022-09-20T08:50:23;13.80;39.90
33903;DHT22;20194;50.950;5.346;2022-09-20T08:52:53;13.90;37.90
33903;DHT22;20194;50.950;5.346;2022-09-20T08:55:23;14.00;38.10
33903;DHT22;20194;50.950;5.346;2022-09-20T08:57:55;14.20;33.80
33903;DHT22;20194;50.950;5.346;2022-09-20T09:00:23;14.40;27.50
33903;DHT22;20194;50.950;5.346;2022-09-20T09:02:53;14.50;29.50
33903;DHT22;20194;50.950;5.346;2022-09-20T09:05:44;14.40;28.80
33903;DHT22;20194;50.950;5.346;2022-09-20T09:08:16;14.40;23.60
33903;DHT22;20194;50.950;5.346;2022-09-20T09:10:55;14.60;22.20
33903;DHT22;20194;50.950;5.346;2022-09-20T09:15:54;14.70;22.20
33903;DHT22;20194;50.950;5.346;2022-09-20T09:18:34;14.90;19.80
33903;DHT22;20194;50.950;5.346;2022-09-20T09:21:01;15.00;11.30
33903;DHT22;20194;50.950;5.346;2022-09-20T09:23:30;15.30;6.40
33903;DHT22;20194;50.950;5.346;2022-09-20T09:26:03;15.30;6.20
33903;DHT22;20194;50.950;5.346;2022-09-20T09:28:30;15.30;3.80
33903;DHT22;20194;50.950;5.346;2022-09-20T09:31:22;15.40;5.20
33903;DHT22;20194;50.950;5.346;2022-09-20T09:33:50;15.60;1.00
33903;DHT22;20194;50.950;5.346;2022-09-20T09:36:21;15.70;1.00
33903;DHT22;20194;50.950;5.346;2022-09-20T09:38:48;15.80;1.00
33903;DHT22;20194;50.950;5.346;2022-09-20T09:44:03;16.00;1.00
33903;DHT22;20194;50.950;5.346;2022-09-20T09:46:33;16.00;1.00
33903;DHT22;20194;50.950;5.346;2022-09-20T09:51:38;15.80;1.00
33903;DHT22;20194;50.950;5.346;2022-09-20T09:54:13;15.80;1.00
33903;DHT22;20194;50.950;5.346;2022-09-20T10:06:13;16.10;1.00
33903;DHT22;20194;50.950;5.346;2022-09-20T10:08:58;16.10;1.00
33903;DHT22;20194;50.950;5.346;2022-09-20T10:21:54;16.40;1.00
33903;DHT22;20194;50.950;5.346;2022-09-20T10:24:37;16.30;1.00
33903;DHT22;20194;50.950;5.346;2022-09-20T10:30:09;16.40;1.00
33903;DHT22;20194;50.950;5.346;2022-09-20T10:32:49;16.40;1.00
33903;DHT22;20194;50.950;5.346;2022-09-20T10:38:17;16.40;1.00
33903;DHT22;20194;50.950;5.346;2022-09-20T10:47:17;17.10;1.00
33903;DHT22;20194;50.950;5.346;2022-09-20T10:58:16;17.90;1.00
33903;DHT22;20194;50.950;5.346;2022-09-20T11:09:35;18.20;99.90
33903;DHT22;20194;50.950;5.346;2022-09-20T11:15:22;18.90;99.90
33903;DHT22;20194;50.950;5.346;2022-09-20T11:18:11;18.20;99.90
33903;DHT22;20194;50.950;5.346;2022-09-20T11:20:55;18.40;99.90
33903;DHT22;20194;50.950;5.346;2022-09-20T11:26:10;19.00;99.90
33903;DHT22;20194;50.950;5.346;2022-09-20T11:28:44;19.20;1.00
33903;DHT22;20194;50.950;5.346;2022-09-20T11:33:44;18.70;1.00
33903;DHT22;20194;50.950;5.346;2022-09-20T11:36:24;18.90;99.90
33903;DHT22;20194;50.950;5.346;2022-09-20T11:39:14;18.90;99.90
33903;DHT22;20194;50.950;5.346;2022-09-20T11:41:41;18.90;78.90
33903;DHT22;20194;50.950;5.346;2022-09-20T11:44:14;19.00;83.50
33903;DHT22;20194;50.950;5.346;2022-09-20T11:47:32;19.10;1.00
33903;DHT22;20194;50.950;5.346;2022-09-20T11:57:37;19.30;95.20
33903;DHT22;20194;50.950;5.346;2022-09-20T12:00:04;19.30;1.00
33903;DHT22;20194;50.950;5.346;2022-09-20T12:05:04;18.70;1.00
33903;DHT22;20194;50.950;5.346;2022-09-20T12:07:35;18.10;99.90
33903;DHT22;20194;50.950;5.346;2022-09-20T12:10:07;18.00;99.90
33903;DHT22;20194;50.950;5.346;2022-09-20T12:12:46;17.80;99.90
33903;DHT22;20194;50.950;5.346;2022-09-20T12:15:38;17.90;99.90
33903;DHT22;20194;50.950;5.346;2022-09-20T12:18:27;17.90;99.90
33903;DHT22;20194;50.950;5.346;2022-09-20T12:20:58;18.00;99.90
33903;DHT22;20194;50.950;5.346;2022-09-20T12:28:58;18.00;99.90
33903;DHT22;20194;50.950;5.346;2022-09-20T12:39:14;18.20;99.90
33903;DHT22;20194;50.950;5.346;2022-09-20T12:41:47;18.10;99.90
33903;DHT22;20194;50.950;5.346;2022-09-20T12:55:49;18.10;99.90
33903;DHT22;20194;50.950;5.346;2022-09-20T12:58:24;18.00;99.90
33903;DHT22;20194;50.950;5.346;2022-09-20T13:08:41;17.90;99.90
33903;DHT22;20194;50.950;5.346;2022-09-20T13:11:24;17.90;1.00
33903;DHT22;20194;50.950;5.346;2022-09-20T13:16:52;17.90;1.00
33903;DHT22;20194;50.950;5.346;2022-09-20T13:19:23;17.80;1.00
33903;DHT22;20194;50.950;5.346;2022-09-20T13:24:49;17.70;1.00
33903;DHT22;20194;50.950;5.346;2022-09-20T13:27:20;17.70;1.00
33903;DHT22;20194;50.950;5.346;2022-09-20T13:29:47;17.60;1.00
33903;DHT22;20194;50.950;5.346;2022-09-20T13:32:17;17.90;1.00
33903;DHT22;20194;50.950;5.346;2022-09-20T13:34:43;17.70;1.00
33903;DHT22;20194;50.950;5.346;2022-09-20T13:37:19;17.60;1.00
33903;DHT22;20194;50.950;5.346;2022-09-20T13:39:46;17.60;1.00
33903;DHT22;20194;50.950;5.346;2022-09-20T13:42:17;17.80;1.00
33903;DHT22;20194;50.950;5.346;2022-09-20T13:44:44;17.80;1.00
33903;DHT22;20194;50.950;5.346;2022-09-20T13:47:31;18.00;1.00
33903;DHT22;20194;50.950;5.346;2022-09-20T13:52:50;18.00;1.00
33903;DHT22;20194;50.950;5.346;2022-09-20T13:57:45;18.20;1.00
33903;DHT22;20194;50.950;5.346;2022-09-20T14:00:13;18.30;1.00
33903;DHT22;20194;50.950;5.346;2022-09-20T14:02:40;18.30;1.00
33903;DHT22;20194;50.950;5.346;2022-09-20T14:05:17;18.30;1.00
33903;DHT22;20194;50.950;5.346;2022-09-20T14:07:45;18.30;1.00
33903;DHT22;20194;50.950;5.346;2022-09-20T14:10:28;18.30;1.00
33903;DHT22;20194;50.950;5.346;2022-09-20T14:13:00;18.20;1.00
33903;DHT22;20194;50.950;5.346;2022-09-20T14:15:33;18.20;1.00
33903;DHT22;20194;50.950;5.346;2022-09-20T14:18:00;18.40;1.00
33903;DHT22;20194;50.950;5.346;2022-09-20T14:20:29;18.20;1.00
33903;DHT22;20194;50.950;5.346;2022-09-20T14:22:55;17.90;1.00
33903;DHT22;20194;50.950;5.346;2022-09-20T14:25:23;17.90;1.00
33903;DHT22;20194;50.950;5.346;2022-09-20T14:28:15;18.00;1.00
33903;DHT22;20194;50.950;5.346;2022-09-20T14:30:42;18.00;1.00
33903;DHT22;20194;50.950;5.346;2022-09-20T14:33:15;18.10;1.00
33903;DHT22;20194;50.950;5.346;2022-09-20T14:35:49;18.20;1.00
33903;DHT22;20194;50.950;5.346;2022-09-20T14:38:16;18.20;1.00
33903;DHT22;20194;50.950;5.346;2022-09-20T14:40:47;18.20;1.00
33903;DHT22;20194;50.950;5.346;2022-09-20T14:43:33;18.10;1.00
33903;DHT22;20194;50.950;5.346;2022-09-20T14:46:14;17.90;1.00
33903;DHT22;20194;50.950;5.346;2022-09-20T14:48:40;17.70;1.00
33903;DHT22;20194;50.950;5.346;2022-09-20T14:53:44;17.60;1.00
33903;DHT22;20194;50.950;5.346;2022-09-20T14:56:13;17.80;1.00
33903;DHT22;20194;50.950;5.346;2022-09-20T15:01:37;17.80;1.00
33903;DHT22;20194;50.950;5.346;2022-09-20T15:04:28;17.90;1.00
33903;DHT22;20194;50.950;5.346;2022-09-20T15:07:00;17.80;1.00
33903;DHT22;20194;50.950;5.346;2022-09-20T15:09:26;17.50;1.00
33903;DHT22;20194;50.950;5.346;2022-09-20T15:12:19;17.60;1.00
33903;DHT22;20194;50.950;5.346;2022-09-20T15:14:46;17.80;1.00
33903;DHT22;20194;50.950;5.346;2022-09-20T15:17:18;17.90;1.00
33903;DHT22;20194;50.950;5.346;2022-09-20T15:19:44;17.90;1.00
33903;DHT22;20194;50.950;5.346;2022-09-20T15:22:10;17.80;1.00
33903;DHT22;20194;50.950;5.346;2022-09-20T15:24:36;17.60;1.00
33903;DHT22;20194;50.950;5.346;2022-09-20T15:27:03;17.60;1.00
33903;DHT22;20194;50.950;5.346;2022-09-20T15:29:29;17.40;1.00
33903;DHT22;20194;50.950;5.346;2022-09-20T15:31:55;17.20;1.00
33903;DHT22;20194;50.950;5.346;2022-09-20T15:34:20;17.40;1.00
33903;DHT22;20194;50.950;5.346;2022-09-20T15:36:46;17.60;1.00
33903;DHT22;20194;50.950;5.346;2022-09-20T15:39:13;17.60;1.00
33903;DHT22;20194;50.950;5.346;2022-09-20T15:41:39;17.60;1.00
33903;DHT22;20194;50.950;5.346;2022-09-20T15:44:05;17.70;1.00
33903;DHT22;20194;50.950;5.346;2022-09-20T15:46:31;17.60;1.00
33903;DHT22;20194;50.950;5.346;2022-09-20T15:48:59;17.60;1.00
33903;DHT22;20194;50.950;5.346;2022-09-20T15:51:25;17.40;1.00
33903;DHT22;20194;50.950;5.346;2022-09-20T15:53:57;17.50;1.00
33903;DHT22;20194;50.950;5.346;2022-09-20T15:56:30;17.60;1.00
33903;DHT22;20194;50.950;5.346;2022-09-20T15:59:00;17.70;1.00
33903;DHT22;20194;50.950;5.346;2022-09-20T16:03:57;17.80;1.00
33903;DHT22;20194;50.950;5.346;2022-09-20T16:06:24;17.90;1.00
33903;DHT22;20194;50.950;5.346;2022-09-20T16:08:50;17.90;1.00
33903;DHT22;20194;50.950;5.346;2022-09-20T16:11:18;17.80;1.00
33903;DHT22;20194;50.950;5.346;2022-09-20T16:13:46;17.90;1.00
33903;DHT22;20194;50.950;5.346;2022-09-20T16:16:11;18.00;1.00
33903;DHT22;20194;50.950;5.346;2022-09-20T16:18:38;18.00;1.00
33903;DHT22;20194;50.950;5.346;2022-09-20T16:21:23;18.10;1.00
33903;DHT22;20194;50.950;5.346;2022-09-20T16:23:54;18.10;1.00
33903;DHT22;20194;50.950;5.346;2022-09-20T16:26:21;17.90;1.00
33903;DHT22;20194;50.950;5.346;2022-09-20T16:28:49;17.60;1.00
33903;DHT22;20194;50.950;5.346;2022-09-20T16:31:35;17.30;1.00
33903;DHT22;20194;50.950;5.346;2022-09-20T16:34:06;17.50;1.00
33903;DHT22;20194;50.950;5.346;2022-09-20T16:36:33;17.60;1.00
33903;DHT22;20194;50.950;5.346;2022-09-20T16:38:59;17.60;1.00
33903;DHT22;20194;50.950;5.346;2022-09-20T16:41:26;17.70;1.00
33903;DHT22;20194;50.950;5.346;2022-09-20T16:43:53;17.80;1.00
33903;DHT22;20194;50.950;5.346;2022-09-20T16:46:22;17.80;1.00
33903;DHT22;20194;50.950;5.346;2022-09-20T16:48:52;17.90;1.00
33903;DHT22;20194;50.950;5.346;2022-09-20T16:51:23;17.80;1.00
33903;DHT22;20194;50.950;5.346;2022-09-20T16:53:53;17.80;1.00
33903;DHT22;20194;50.950;5.346;2022-09-20T16:56:31;17.80;1.00
33903;DHT22;20194;50.950;5.346;2022-09-20T16:59:01;17.60;1.00
33903;DHT22;20194;50.950;5.346;2022-09-20T17:01:27;17.60;1.00
33903;DHT22;20194;50.950;5.346;2022-09-20T17:03:53;17.60;1.00
33903;DHT22;20194;50.950;5.346;2022-09-20T17:06:19;17.50;1.00
33903;DHT22;20194;50.950;5.346;2022-09-20T17:08:46;17.70;1.00
33903;DHT22;20194;50.950;5.346;2022-09-20T17:11:14;17.60;1.00
33903;DHT22;20194;50.950;5.346;2022-09-20T17:13:42;17.60;1.00
33903;DHT22;20194;50.950;5.346;2022-09-20T17:16:13;17.60;1.00
33903;DHT22;20194;50.950;5.346;2022-09-20T17:18:40;17.70;1.00
33903;DHT22;20194;50.950;5.346;2022-09-20T17:21:09;17.60;1.00
33903;DHT22;20194;50.950;5.346;2022-09-20T17:23:37;17.50;1.00
33903;DHT22;20194;50.950;5.346;2022-09-20T17:26:19;17.40;1.00
33903;DHT22;20194;50.950;5.346;2022-09-20T17:28:48;17.50;1.00
33903;DHT22;20194;50.950;5.346;2022-09-20T17:31:17;17.40;1.00
33903;DHT22;20194;50.950;5.346;2022-09-20T17:33:44;17.30;1.00
33903;DHT22;20194;50.950;5.346;2022-09-20T17:36:18;17.30;1.00
33903;DHT22;20194;50.950;5.346;2022-09-20T17:38:44;17.20;1.00
33903;DHT22;20194;50.950;5.346;2022-09-20T17:41:14;17.20;1.00
33903;DHT22;20194;50.950;5.346;2022-09-20T17:43:41;17.10;1.00
33903;DHT22;20194;50.950;5.346;2022-09-20T17:46:22;17.10;1.00
33903;DHT22;20194;50.950;5.346;2022-09-20T17:48:54;17.10;1.00
33903;DHT22;20194;50.950;5.346;2022-09-20T17:51:25;17.10;1.00
33903;DHT22;20194;50.950;5.346;2022-09-20T17:53:51;17.10;1.00
33903;DHT22;20194;50.950;5.346;2022-09-20T17:56:17;17.00;1.00
33903;DHT22;20194;50.950;5.346;2022-09-20T17:58:43;17.00;1.00
33903;DHT22;20194;50.950;5.346;2022-09-20T18:01:18;16.90;1.00
33903;DHT22;20194;50.950;5.346;2022-09-20T18:03:47;16.90;1.00
33903;DHT22;20194;50.950;5.346;2022-09-20T18:06:36;16.80;1.00
33903;DHT22;20194;50.950;5.346;2022-09-20T18:09:05;16.80;1.00
33903;DHT22;20194;50.950;5.346;2022-09-20T18:13:59;16.80;1.00
33903;DHT22;20194;50.950;5.346;2022-09-20T18:16:26;16.80;1.00
33903;DHT22;20194;50.950;5.346;2022-09-20T18:18:52;16.80;1.00
33903;DHT22;20194;50.950;5.346;2022-09-20T18:21:20;16.70;1.00
33903;DHT22;20194;50.950;5.346;2022-09-20T18:23:47;16.70;1.00
33903;DHT22;20194;50.950;5.346;2022-09-20T18:26:18;16.70;1.00
33903;DHT22;20194;50.950;5.346;2022-09-20T18:28:54;16.70;1.00
33903;DHT22;20194;50.950;5.346;2022-09-20T18:31:25;16.70;1.00
33903;DHT22;20194;50.950;5.346;2022-09-20T18:33:53;16.60;1.00
33903;DHT22;20194;50.950;5.346;2022-09-20T18:36:19;16.60;1.00
33903;DHT22;20194;50.950;5.346;2022-09-20T18:38:45;16.60;1.00
33903;DHT22;20194;50.950;5.346;2022-09-20T18:41:11;16.60;1.00
33903;DHT22;20194;50.950;5.346;2022-09-20T18:43:39;16.50;1.00
33903;DHT22;20194;50.950;5.346;2022-09-20T18:46:09;16.50;1.00
33903;DHT22;20194;50.950;5.346;2022-09-20T18:48:35;16.50;1.00
33903;DHT22;20194;50.950;5.346;2022-09-20T18:51:04;16.50;1.00
33903;DHT22;20194;50.950;5.346;2022-09-20T18:53:33;16.50;1.00
33903;DHT22;20194;50.950;5.346;2022-09-20T18:58:44;16.30;1.00
33903;DHT22;20194;50.950;5.346;2022-09-20T19:06:48;16.30;1.00
33903;DHT22;20194;50.950;5.346;2022-09-20T19:09:23;16.30;1.00
33903;DHT22;20194;50.950;5.346;2022-09-20T19:11:58;16.30;1.00
33903;DHT22;20194;50.950;5.346;2022-09-20T19:14:33;16.20;1.00
33903;DHT22;20194;50.950;5.346;2022-09-20T19:17:01;16.20;1.00
33903;DHT22;20194;50.950;5.346;2022-09-20T19:19:48;16.00;1.00
33903;DHT22;20194;50.950;5.346;2022-09-20T19:25:16;16.10;1.00
33903;DHT22;20194;50.950;5.346;2022-09-20T19:27:43;16.00;1.00
33903;DHT22;20194;50.950;5.346;2022-09-20T19:30:12;16.00;1.00
33903;DHT22;20194;50.950;5.346;2022-09-20T19:32:38;16.00;1.00
33903;DHT22;20194;50.950;5.346;2022-09-20T19:35:05;15.90;1.00
33903;DHT22;20194;50.950;5.346;2022-09-20T19:38:00;15.90;1.00
33903;DHT22;20194;50.950;5.346;2022-09-20T19:49:04;15.70;1.00
33903;DHT22;20194;50.950;5.346;2022-09-20T19:51:36;15.60;1.00
33903;DHT22;20194;50.950;5.346;2022-09-20T19:54:02;15.50;1.00
33903;DHT22;20194;50.950;5.346;2022-09-20T19:56:35;15.40;1.00
33903;DHT22;20194;50.950;5.346;2022-09-20T19:59:08;15.40;1.00
33903;DHT22;20194;50.950;5.346;2022-09-20T20:01:34;15.40;1.00
33903;DHT22;20194;50.950;5.346;2022-09-20T20:04:00;15.40;1.00
33903;DHT22;20194;50.950;5.346;2022-09-20T20:06:32;15.40;1.00
33903;DHT22;20194;50.950;5.346;2022-09-20T20:11:40;15.20;1.00
33903;DHT22;20194;50.950;5.346;2022-09-20T20:14:36;15.20;1.00
33903;DHT22;20194;50.950;5.346;2022-09-20T20:20:08;15.20;1.00
33903;DHT22;20194;50.950;5.346;2022-09-20T20:23:07;15.20;1.00
33903;DHT22;20194;50.950;5.346;2022-09-20T20:28:12;15.10;1.00
33903;DHT22;20194;50.950;5.346;2022-09-20T20:30:38;15.10;1.00
33903;DHT22;20194;50.950;5.346;2022-09-20T20:33:03;15.10;1.00
33903;DHT22;20194;50.950;5.346;2022-09-20T20:35:30;15.10;1.00
33903;DHT22;20194;50.950;5.346;2022-09-20T20:37:56;15.00;1.00
33903;DHT22;20194;50.950;5.346;2022-09-20T20:40:22;15.00;1.00
33903;DHT22;20194;50.950;5.346;2022-09-20T20:42:48;14.90;1.00
33903;DHT22;20194;50.950;5.346;2022-09-20T20:45:19;14.90;1.00
33903;DHT22;20194;50.950;5.346;2022-09-20T20:47:45;14.80;1.00
33903;DHT22;20194;50.950;5.346;2022-09-20T20:50:13;14.80;1.00
33903;DHT22;20194;50.950;5.346;2022-09-20T20:52:38;14.80;1.00
33903;DHT22;20194;50.950;5.346;2022-09-20T20:55:04;14.80;1.00
33903;DHT22;20194;50.950;5.346;2022-09-20T20:57:31;14.80;1.00
33903;DHT22;20194;50.950;5.346;2022-09-20T20:59:58;14.80;1.00
33903;DHT22;20194;50.950;5.346;2022-09-20T21:02:23;14.80;1.00
33903;DHT22;20194;50.950;5.346;2022-09-20T21:04:49;14.70;1.00
33903;DHT22;20194;50.950;5.346;2022-09-20T21:07:15;14.70;1.00
33903;DHT22;20194;50.950;5.346;2022-09-20T21:09:42;14.70;1.00
33903;DHT22;20194;50.950;5.346;2022-09-20T21:12:07;14.70;1.00
33903;DHT22;20194;50.950;5.346;2022-09-20T21:14:33;14.60;1.00
33903;DHT22;20194;50.950;5.346;2022-09-20T21:16:59;14.60;1.00
33903;DHT22;20194;50.950;5.346;2022-09-20T21:19:26;14.50;1.00
33903;DHT22;20194;50.950;5.346;2022-09-20T21:21:52;14.50;1.00
33903;DHT22;20194;50.950;5.346;2022-09-20T21:24:18;14.50;1.00
33903;DHT22;20194;50.950;5.346;2022-09-20T21:26:44;14.40;1.00
33903;DHT22;20194;50.950;5.346;2022-09-20T21:29:12;14.40;1.00
33903;DHT22;20194;50.950;5.346;2022-09-20T21:31:40;14.40;1.00
33903;DHT22;20194;50.950;5.346;2022-09-20T21:34:07;14.40;1.00
33903;DHT22;20194;50.950;5.346;2022-09-20T21:36:34;14.30;1.00
33903;DHT22;20194;50.950;5.346;2022-09-20T21:39:00;14.30;1.00
33903;DHT22;20194;50.950;5.346;2022-09-20T21:41:31;14.30;1.00
33903;DHT22;20194;50.950;5.346;2022-09-20T21:43:58;14.20;1.00
33903;DHT22;20194;50.950;5.346;2022-09-20T21:46:36;14.20;1.00
33903;DHT22;20194;50.950;5.346;2022-09-20T21:49:06;14.20;1.00